Terminal Aerodrome Forecast
Issued by NWS

Home | Current Version | Previous Version | Graphics & Text | Print | Product List | Glossary On
Versions: 1 2 3 4 5 6 7 8 9 10 11 12 13 14 15 16 17 18
749
FTUS43 KMPX 260310 AAA
TAFRNH
TAF AMD
KRNH 260310Z 2603/2624 21007KT P6SM VCSH SCT035 BKN090
     FM260800 20005KT 6SM SHRA VCTS SCT025 BKN040CB
     FM261200 VRB03KT 6SM -SHRA VCTS OVC020CB
     FM261800 36004KT P6SM OVC050=

USA.gov is the U.S. government's official web portal to all federal, state and local government web resources and services.